Time;durP1;ratioP1;P1;durP2;ratioP2;P2;SDS_P1;SDS_P2;PMS_P1;PMS_P2;Temp;Humidity;BMP_temperature;BMP_pressure;BME280_temperature;BME280_humidity;BME280_pressure;Samples;Min_cycle;Max_cycle;Signal;HPM_P1;HPM_P2
2023/03/08 00:00:43;;;;;;;26.10;12.43;;;9.10;99.90;;;;;;5055695;28;20021;-76
2023/03/08 00:03:14;;;;;;;21.92;9.32;;;9.20;99.90;;;;;;5056396;28;20024;-77
2023/03/08 00:05:40;;;;;;;20.70;9.30;;;9.20;99.90;;;;;;5056722;28;20025;-75
2023/03/08 00:08:05;;;;;;;20.30;9.05;;;9.20;99.90;;;;;;5056116;28;20090;-75
2023/03/08 00:10:31;;;;;;;14.38;6.72;;;9.20;99.90;;;;;;5056488;28;20024;-78
2023/03/08 00:12:57;;;;;;;11.98;6.18;;;9.20;99.90;;;;;;5054574;28;20052;-76
2023/03/08 00:15:23;;;;;;;11.05;5.63;;;9.10;99.90;;;;;;5056304;28;20404;-76
2023/03/08 00:17:49;;;;;;;15.20;5.97;;;9.10;99.90;;;;;;5055250;28;20021;-75
2023/03/08 00:20:15;;;;;;;15.95;7.25;;;9.10;99.90;;;;;;5056272;28;20029;-76
2023/03/08 00:22:41;;;;;;;13.95;5.20;;;9.10;99.90;;;;;;5055604;28;20017;-76
2023/03/08 00:25:08;;;;;;;16.33;5.72;;;9.20;99.90;;;;;;5055945;28;20037;-76
2023/03/08 00:27:35;;;;;;;14.35;5.30;;;9.10;99.90;;;;;;5056239;28;20044;-77
2023/03/08 00:30:01;;;;;;;15.23;6.22;;;9.00;99.90;;;;;;5056528;28;20374;-76
2023/03/08 00:32:27;;;;;;;15.48;6.57;;;9.00;99.90;;;;;;5056484;28;20056;-76
2023/03/08 00:34:53;;;;;;;17.48;6.97;;;9.00;99.90;;;;;;5055742;28;20525;-76
2023/03/08 00:37:21;;;;;;;22.25;8.23;;;9.00;99.90;;;;;;5057054;28;20021;-76
2023/03/08 00:39:53;;;;;;;23.27;7.88;;;8.90;99.90;;;;;;5055996;28;20100;-76
2023/03/08 00:42:23;;;;;;;19.50;7.70;;;8.90;99.90;;;;;;5056654;28;20024;-76
2023/03/08 00:44:49;;;;;;;21.52;8.50;;;8.80;99.90;;;;;;5056104;28;20064;-76
2023/03/08 00:47:15;;;;;;;21.33;8.30;;;8.80;99.90;;;;;;5055826;28;20009;-75
2023/03/08 00:49:41;;;;;;;23.20;8.35;;;8.80;99.90;;;;;;5056301;28;20035;-75
2023/03/08 00:52:08;;;;;;;18.17;8.27;;;8.80;99.90;;;;;;5055585;28;20096;-78
2023/03/08 00:54:33;;;;;;;22.30;8.10;;;8.80;99.90;;;;;;5055772;28;20029;-76
2023/03/08 00:56:59;;;;;;;19.67;6.68;;;8.80;99.90;;;;;;5054969;28;20470;-77
2023/03/08 00:59:25;;;;;;;11.98;5.28;;;8.80;99.90;;;;;;5055152;28;20021;-76
2023/03/08 01:01:50;;;;;;;18.90;8.35;;;8.90;99.90;;;;;;5055382;28;20017;-76
2023/03/08 01:04:16;;;;;;;11.10;5.43;;;9.00;99.90;;;;;;5055387;28;20094;-77
2023/03/08 01:06:42;;;;;;;15.55;7.05;;;9.00;99.90;;;;;;5055433;28;20112;-77
2023/03/08 01:09:09;;;;;;;21.40;9.30;;;9.00;99.90;;;;;;5055202;28;20406;-77
2023/03/08 01:11:36;;;;;;;40.45;18.15;;;9.00;99.90;;;;;;5055418;28;20104;-75
2023/03/08 01:14:03;;;;;;;80.72;35.78;;;9.00;99.90;;;;;;5055044;28;20463;-77
2023/03/08 01:16:32;;;;;;;57.58;25.75;;;8.90;99.90;;;;;;5054518;28;20109;-75
2023/03/08 01:18:59;;;;;;;52.63;24.38;;;8.90;99.90;;;;;;5055468;28;20033;-76
2023/03/08 01:21:27;;;;;;;49.78;23.30;;;8.90;99.90;;;;;;5054479;28;20028;-78
2023/03/08 01:23:53;;;;;;;69.95;33.55;;;8.80;99.90;;;;;;5047079;28;20021;-76
2023/03/08 01:26:21;;;;;;;55.08;28.83;;;8.80;99.90;;;;;;5055020;28;20367;-76
2023/03/08 01:28:48;;;;;;;49.65;26.13;;;8.80;99.90;;;;;;5053754;28;20025;-77
2023/03/08 01:31:25;;;;;;;40.28;23.40;;;8.80;99.90;;;;;;5055439;28;20051;-76
2023/03/08 01:33:52;;;;;;;33.47;15.05;;;8.80;99.90;;;;;;5055294;28;20036;-77
2023/03/08 01:36:20;;;;;;;40.72;18.35;;;8.90;99.90;;;;;;5054871;28;20024;-76
2023/03/08 01:38:46;;;;;;;28.45;14.25;;;8.90;99.90;;;;;;5054820;28;20053;-78
2023/03/08 01:41:23;;;;;;;31.00;14.38;;;8.90;99.90;;;;;;5055120;28;20037;-75
2023/03/08 01:43:49;;;;;;;26.83;11.90;;;8.90;99.90;;;;;;5053459;28;20033;-75
2023/03/08 01:46:21;;;;;;;19.60;9.40;;;8.80;99.90;;;;;;5055047;28;20024;-75
2023/03/08 01:49:04;;;;;;;16.80;7.67;;;8.80;99.90;;;;;;5053503;28;20103;-77
2023/03/08 01:51:35;;;;;;;40.42;20.52;;;8.80;99.90;;;;;;5053094;28;20266;-76
2023/03/08 01:54:06;;;;;;;29.60;12.93;;;8.70;99.90;;;;;;5054664;28;20040;-77
2023/03/08 01:56:34;;;;;;;137.07;49.75;;;8.70;99.90;;;;;;5054513;28;20043;-76
2023/03/08 01:59:00;;;;;;;125.60;59.30;;;8.60;99.90;;;;;;5054944;28;20459;-76
2023/03/08 02:01:27;;;;;;;63.72;26.33;;;8.50;99.90;;;;;;5054710;28;20031;-76
2023/03/08 02:03:52;;;;;;;69.05;28.08;;;8.50;99.90;;;;;;5054030;28;20028;-76
2023/03/08 02:06:19;;;;;;;53.60;30.45;;;8.50;99.90;;;;;;5053159;28;20017;-75
2023/03/08 02:08:45;;;;;;;48.50;20.48;;;8.50;99.90;;;;;;5053229;28;20017;-75
2023/03/08 02:11:13;;;;;;;41.70;18.27;;;8.50;99.90;;;;;;5054233;28;20491;-76
2023/03/08 02:13:40;;;;;;;44.70;19.45;;;8.50;99.90;;;;;;5054654;28;20045;-76
2023/03/08 02:16:08;;;;;;;83.03;33.08;;;8.50;99.90;;;;;;5054273;28;20021;-77
2023/03/08 02:18:34;;;;;;;76.47;31.25;;;8.50;99.90;;;;;;5047298;28;20111;-75
2023/03/08 02:21:00;;;;;;;75.78;31.25;;;8.50;99.90;;;;;;5054302;28;20033;-76
2023/03/08 02:23:26;;;;;;;91.35;37.55;;;8.50;99.90;;;;;;5054149;28;20033;-75
2023/03/08 02:25:53;;;;;;;44.83;19.17;;;8.50;99.90;;;;;;5053922;28;20032;-76
2023/03/08 02:28:21;;;;;;;36.42;16.25;;;8.50;99.90;;;;;;5054259;28;20024;-75
2023/03/08 02:30:47;;;;;;;37.53;16.70;;;8.50;99.90;;;;;;5053899;28;20040;-77
2023/03/08 02:33:12;;;;;;;24.17;12.23;;;8.50;99.90;;;;;;5053706;28;20017;-76
2023/03/08 02:35:41;;;;;;;16.95;8.00;;;8.60;99.90;;;;;;5054112;28;20029;-77
2023/03/08 02:38:08;;;;;;;39.53;19.52;;;8.60;99.90;;;;;;5053314;28;20110;-76
2023/03/08 02:40:34;;;;;;;36.38;16.60;;;8.60;99.90;;;;;;5054086;28;20021;-77
2023/03/08 02:43:00;;;;;;;28.10;13.90;;;8.60;99.90;;;;;;5054702;28;20109;-76
2023/03/08 02:45:26;;;;;;;40.22;15.93;;;8.60;99.90;;;;;;5054055;28;20115;-77
2023/03/08 02:47:51;;;;;;;53.47;22.48;;;8.60;99.90;;;;;;5052827;28;20108;-76
2023/03/08 02:50:17;;;;;;;40.30;17.95;;;8.60;99.90;;;;;;5054305;28;20074;-78
2023/03/08 02:52:43;;;;;;;36.75;17.73;;;8.60;99.90;;;;;;5053599;28;20025;-76
2023/03/08 02:55:08;;;;;;;35.88;15.85;;;8.60;99.90;;;;;;5054201;28;20021;-77
2023/03/08 02:57:34;;;;;;;20.05;10.73;;;8.60;99.90;;;;;;5053508;28;20029;-76
2023/03/08 03:00:00;;;;;;;15.80;7.35;;;8.50;99.90;;;;;;5054135;28;20436;-75
2023/03/08 03:02:26;;;;;;;19.95;9.77;;;8.50;99.90;;;;;;5052867;28;20448;-75
2023/03/08 03:04:51;;;;;;;15.77;8.10;;;8.50;99.90;;;;;;5053907;28;20534;-77
2023/03/08 03:07:17;;;;;;;14.05;6.82;;;8.50;99.90;;;;;;5052559;28;20021;-77
2023/03/08 03:09:43;;;;;;;14.88;6.70;;;8.50;99.90;;;;;;5052394;28;20024;-77
2023/03/08 03:12:08;;;;;;;15.15;6.88;;;8.40;99.90;;;;;;5053532;28;20041;-76
2023/03/08 03:14:34;;;;;;;17.60;6.75;;;8.40;99.90;;;;;;5051884;28;20029;-76
2023/03/08 03:17:00;;;;;;;14.13;7.05;;;8.40;99.90;;;;;;5053530;28;20174;-76
2023/03/08 03:19:25;;;;;;;16.77;8.63;;;8.40;99.90;;;;;;5053009;28;20051;-76
2023/03/08 03:21:51;;;;;;;19.38;9.88;;;8.40;99.90;;;;;;5052844;28;20025;-78
2023/03/08 03:24:17;;;;;;;21.38;9.48;;;8.40;99.90;;;;;;5052034;28;20033;-78
2023/03/08 03:26:42;;;;;;;22.95;11.40;;;8.50;99.90;;;;;;5053249;28;20028;-77
2023/03/08 03:29:08;;;;;;;43.83;18.77;;;8.50;99.90;;;;;;5052909;28;20021;-77
2023/03/08 03:31:34;;;;;;;38.05;17.42;;;8.50;99.90;;;;;;5053162;28;20108;-78
2023/03/08 03:34:00;;;;;;;49.28;21.20;;;8.50;99.90;;;;;;5052681;28;20024;-78
2023/03/08 03:36:26;;;;;;;21.30;9.52;;;8.50;99.90;;;;;;5052358;28;20033;-77
2023/03/08 03:38:51;;;;;;;26.50;12.30;;;8.50;99.90;;;;;;5053081;28;20429;-79
2023/03/08 03:41:22;;;;;;;29.73;12.77;;;8.50;99.90;;;;;;5052545;28;20100;-78
2023/03/08 03:43:48;;;;;;;27.38;12.88;;;8.50;99.90;;;;;;5053133;28;20056;-78
2023/03/08 03:46:17;;;;;;;17.95;8.57;;;8.50;99.90;;;;;;5052588;28;20027;-77
2023/03/08 03:48:44;;;;;;;21.45;10.68;;;8.50;99.90;;;;;;5052641;28;20036;-77
2023/03/08 03:51:15;;;;;;;20.70;9.55;;;8.60;99.90;;;;;;5046312;28;20048;-79
2023/03/08 03:53:41;;;;;;;16.48;7.72;;;8.60;99.90;;;;;;5053128;28;20455;-77
2023/03/08 03:56:12;;;;;;;14.98;7.47;;;8.60;99.90;;;;;;5052660;28;20048;-78
2023/03/08 03:58:38;;;;;;;15.65;6.40;;;8.60;99.90;;;;;;5053305;28;20048;-76
2023/03/08 04:01:09;;;;;;;12.75;5.50;;;8.60;99.90;;;;;;5052363;28;20025;-77
2023/03/08 04:03:35;;;;;;;12.98;4.65;;;8.60;99.90;;;;;;5052718;28;20041;-77
2023/03/08 04:06:09;;;;;;;10.65;3.92;;;8.70;99.90;;;;;;5052551;28;20009;-78
2023/03/08 04:08:40;;;;;;;9.05;4.45;;;8.60;99.90;;;;;;5051535;28;20044;-77
2023/03/08 04:11:07;;;;;;;16.02;6.00;;;8.70;99.90;;;;;;5052598;28;20021;-79
2023/03/08 04:13:33;;;;;;;27.80;11.18;;;8.70;99.90;;;;;;5052483;28;20059;-76
2023/03/08 04:15:59;;;;;;;34.90;12.75;;;8.60;99.90;;;;;;5052584;28;20104;-77
2023/03/08 04:18:24;;;;;;;38.95;12.85;;;8.70;99.90;;;;;;5051419;28;20470;-76
2023/03/08 04:20:50;;;;;;;36.20;12.57;;;8.70;99.90;;;;;;5053030;28;20017;-77
2023/03/08 04:23:16;;;;;;;53.92;14.52;;;8.60;99.90;;;;;;5052459;28;20098;-77
2023/03/08 04:25:41;;;;;;;90.63;22.48;;;8.60;99.90;;;;;;5052066;28;20025;-76
2023/03/08 04:28:07;;;;;;;95.70;25.17;;;8.60;99.90;;;;;;5053513;28;20021;-77
2023/03/08 04:30:33;;;;;;;86.20;25.00;;;8.60;99.90;;;;;;5053033;28;20031;-77
2023/03/08 04:32:58;;;;;;;80.88;23.55;;;8.70;99.90;;;;;;5054316;28;20024;-76
2023/03/08 04:35:24;;;;;;;79.43;23.70;;;8.70;99.90;;;;;;5056471;28;20017;-76
2023/03/08 04:37:50;;;;;;;69.93;23.05;;;8.70;99.90;;;;;;5056779;28;20029;-78
2023/03/08 04:40:16;;;;;;;69.85;21.05;;;8.70;99.90;;;;;;5055461;28;20021;-77
2023/03/08 04:42:42;;;;;;;61.03;20.50;;;8.70;99.90;;;;;;5056775;28;20067;-76
2023/03/08 04:45:08;;;;;;;62.97;22.30;;;8.70;99.90;;;;;;5055018;28;20127;-76
2023/03/08 04:47:34;;;;;;;49.25;16.98;;;8.70;99.90;;;;;;5056622;28;20025;-76
2023/03/08 04:49:59;;;;;;;56.55;17.23;;;8.70;99.90;;;;;;5055390;28;20032;-77
2023/03/08 04:52:25;;;;;;;48.35;17.48;;;8.60;99.90;;;;;;5055442;28;20511;-77
2023/03/08 04:54:51;;;;;;;54.03;17.90;;;8.60;99.90;;;;;;5056053;28;20025;-76
2023/03/08 04:57:16;;;;;;;55.78;21.05;;;8.70;99.90;;;;;;5055819;28;20088;-77
2023/03/08 04:59:43;;;;;;;73.90;24.60;;;8.70;99.90;;;;;;5056097;28;20028;-75
2023/03/08 05:02:09;;;;;;;89.22;29.55;;;8.70;99.90;;;;;;5054622;28;20029;-76
2023/03/08 05:04:34;;;;;;;82.40;27.85;;;8.70;99.90;;;;;;5055514;28;20040;-76
2023/03/08 05:07:00;;;;;;;59.45;24.23;;;8.70;99.90;;;;;;5054890;28;20025;-76
2023/03/08 05:09:26;;;;;;;58.00;23.70;;;8.70;99.90;;;;;;5053789;28;20021;-76
2023/03/08 05:11:51;;;;;;;54.00;23.00;;;8.70;99.90;;;;;;5055331;28;20057;-77
2023/03/08 05:14:17;;;;;;;63.45;21.80;;;8.80;99.90;;;;;;5055052;28;20377;-77
2023/03/08 05:16:43;;;;;;;34.60;14.63;;;8.80;99.90;;;;;;5055389;28;20052;-76
2023/03/08 05:19:08;;;;;;;43.30;18.40;;;8.70;99.90;;;;;;5054690;28;20021;-78
2023/03/08 05:21:34;;;;;;;42.05;17.10;;;8.80;99.90;;;;;;5053814;28;20543;-78
2023/03/08 05:24:00;;;;;;;33.85;14.82;;;8.80;99.90;;;;;;5055051;28;20087;-78
2023/03/08 05:26:25;;;;;;;45.88;20.65;;;8.80;99.90;;;;;;5054134;28;20071;-77
2023/03/08 05:28:51;;;;;;;42.70;19.08;;;8.90;99.90;;;;;;5055302;28;20025;-77
2023/03/08 05:31:19;;;;;;;47.65;20.00;;;8.90;99.90;;;;;;5053891;28;20078;-76
2023/03/08 05:33:49;;;;;;;48.63;19.27;;;8.90;99.90;;;;;;5054662;28;20025;-75
2023/03/08 05:36:16;;;;;;;49.53;20.63;;;8.90;99.90;;;;;;5055168;28;20013;-76
2023/03/08 05:38:42;;;;;;;48.08;20.15;;;8.90;99.90;;;;;;5054786;28;20024;-77
2023/03/08 05:41:11;;;;;;;53.70;22.38;;;8.90;99.90;;;;;;5054319;28;20411;-77
2023/03/08 05:43:37;;;;;;;52.92;19.08;;;8.90;99.90;;;;;;5054882;28;20040;-76
2023/03/08 05:46:06;;;;;;;52.20;18.70;;;8.90;99.90;;;;;;5055026;28;20017;-77
2023/03/08 05:48:33;;;;;;;38.53;18.38;;;8.90;99.90;;;;;;5054522;28;20024;-76
2023/03/08 05:51:04;;;;;;;43.75;21.67;;;8.90;99.90;;;;;;5054802;28;20032;-77
2023/03/08 05:53:30;;;;;;;36.20;14.70;;;8.90;99.90;;;;;;5054994;28;20362;-76
2023/03/08 05:55:55;;;;;;;44.38;19.23;;;8.90;99.90;;;;;;5054159;28;20154;-76
2023/03/08 05:58:21;;;;;;;45.30;19.90;;;8.90;99.90;;;;;;5054956;28;20163;-78
2023/03/08 06:00:47;;;;;;;44.05;21.05;;;8.90;99.90;;;;;;5054717;28;20098;-76
2023/03/08 06:03:13;;;;;;;47.28;21.40;;;8.90;99.90;;;;;;5053733;28;20114;-76
2023/03/08 06:05:38;;;;;;;54.30;22.38;;;8.90;99.90;;;;;;5054529;28;20025;-77
2023/03/08 06:08:04;;;;;;;69.22;25.35;;;9.00;99.90;;;;;;5054163;28;20116;-78
2023/03/08 06:10:30;;;;;;;71.93;32.22;;;8.90;99.90;;;;;;5054534;28;20021;-76
2023/03/08 06:12:55;;;;;;;65.40;31.73;;;8.90;99.90;;;;;;5052612;28;20048;-76
2023/03/08 06:15:21;;;;;;;73.45;35.72;;;9.00;99.90;;;;;;5053737;28;20025;-77
2023/03/08 06:17:47;;;;;;;101.78;46.13;;;9.00;99.90;;;;;;5054466;28;20033;-77
2023/03/08 06:20:15;;;;;;;110.63;51.17;;;9.00;99.90;;;;;;5054315;28;20036;-77
2023/03/08 06:22:41;;;;;;;120.07;49.03;;;9.00;99.90;;;;;;5054432;28;20017;-76
2023/03/08 06:25:07;;;;;;;107.00;49.38;;;9.00;99.90;;;;;;5054431;28;20079;-76
2023/03/08 06:27:33;;;;;;;111.75;48.10;;;9.10;99.90;;;;;;5054914;28;20021;-76
2023/03/08 06:29:58;;;;;;;109.15;47.35;;;9.10;99.90;;;;;;5053967;28;20017;-76
2023/03/08 06:32:24;;;;;;;127.80;53.38;;;9.20;99.90;;;;;;5052702;28;20114;-78
2023/03/08 06:34:50;;;;;;;149.73;58.95;;;9.30;99.90;;;;;;5054325;28;20461;-76
2023/03/08 06:37:15;;;;;;;135.48;56.83;;;9.40;99.90;;;;;;5053891;28;20021;-77
2023/03/08 06:39:41;;;;;;;150.05;65.22;;;9.50;99.90;;;;;;5053380;28;20021;-77
2023/03/08 06:42:07;;;;;;;173.45;70.82;;;9.60;99.90;;;;;;5053613;28;20363;-77
2023/03/08 06:44:32;;;;;;;210.35;87.45;;;9.80;99.90;;;;;;5053064;28;20045;-76
2023/03/08 06:46:58;;;;;;;210.85;86.18;;;10.10;99.90;;;;;;5053871;28;20040;-77
2023/03/08 06:49:24;;;;;;;202.57;92.10;;;10.20;99.90;;;;;;5053656;28;20017;-77
2023/03/08 06:51:49;;;;;;;202.93;85.35;;;10.40;99.90;;;;;;5053473;28;20406;-76
2023/03/08 06:54:16;;;;;;;197.63;81.30;;;10.50;99.90;;;;;;5053209;28;20029;-77
2023/03/08 06:56:45;;;;;;;204.65;83.60;;;10.80;99.90;;;;;;5052811;28;20023;-77
2023/03/08 06:59:12;;;;;;;189.43;80.75;;;11.00;99.90;;;;;;5053100;28;20037;-78
2023/03/08 07:01:38;;;;;;;166.05;72.35;;;11.20;99.50;;;;;;5053384;28;20025;-78
2023/03/08 07:04:04;;;;;;;209.73;94.25;;;11.40;96.40;;;;;;5052724;28;20024;-76
2023/03/08 07:06:30;;;;;;;194.15;92.22;;;11.60;94.20;;;;;;5051733;28;20366;-79
2023/03/08 07:08:56;;;;;;;147.13;70.68;;;11.90;92.90;;;;;;5054045;28;20075;-77
2023/03/08 07:11:21;;;;;;;127.50;58.03;;;12.40;91.60;;;;;;5051964;28;20116;-78
2023/03/08 07:13:47;;;;;;;169.43;69.70;;;12.70;88.70;;;;;;5064977;28;20530;-77
2023/03/08 07:16:14;;;;;;;131.07;64.32;;;12.60;86.40;;;;;;5056518;28;20041;-79
2023/03/08 07:18:40;;;;;;;151.95;65.53;;;12.60;86.40;;;;;;5052879;28;20023;-77
2023/03/08 07:21:06;;;;;;;184.10;78.32;;;12.60;86.00;;;;;;5051884;28;20039;-77
2023/03/08 07:23:32;;;;;;;132.43;62.65;;;12.70;85.70;;;;;;5052188;28;22020;-79
2023/03/08 07:25:58;;;;;;;81.15;40.78;;;12.90;85.20;;;;;;5053500;28;20503;-79
2023/03/08 07:28:24;;;;;;;36.95;17.38;;;13.10;82.70;;;;;;5070889;28;20039;-78
2023/03/08 07:30:51;;;;;;;53.90;26.73;;;13.30;76.90;;;;;;5071735;28;20028;-80
2023/03/08 07:33:20;;;;;;;38.70;21.17;;;13.70;79.20;;;;;;5052888;28;20104;-77
2023/03/08 07:35:47;;;;;;;46.13;19.58;;;14.00;73.70;;;;;;5053318;28;20032;-79
2023/03/08 07:38:14;;;;;;;23.73;10.95;;;14.20;72.90;;;;;;5052950;28;20463;-77
2023/03/08 07:40:39;;;;;;;26.10;11.45;;;14.40;72.20;;;;;;5053135;28;20452;-76
2023/03/08 07:43:05;;;;;;;46.38;23.67;;;14.50;70.40;;;;;;5055636;28;20032;-79
2023/03/08 07:45:31;;;;;;;31.60;15.85;;;14.50;67.50;;;;;;5072061;28;20029;-77
2023/03/08 07:47:58;;;;;;;34.45;17.13;;;14.70;66.30;;;;;;5064440;28;20074;-77
2023/03/08 07:50:23;;;;;;;32.92;17.98;;;14.90;64.10;;;;;;5053342;28;20017;-77
2023/03/08 07:52:49;;;;;;;57.03;28.38;;;14.90;64.50;;;;;;5052350;28;20363;-76
2023/03/08 07:55:15;;;;;;;42.03;20.77;;;15.10;64.40;;;;;;5052928;28;20033;-77
2023/03/08 07:57:41;;;;;;;44.70;22.52;;;15.20;63.70;;;;;;5053379;28;20025;-76
2023/03/08 08:00:08;;;;;;;77.50;35.30;;;15.50;62.30;;;;;;5058110;28;20023;-78
2023/03/08 08:02:35;;;;;;;76.32;37.25;;;15.60;60.30;;;;;;5051953;28;20363;-76
2023/03/08 08:05:01;;;;;;;46.17;22.30;;;15.80;59.00;;;;;;5053493;28;20094;-77
2023/03/08 08:07:27;;;;;;;65.47;32.85;;;15.90;61.90;;;;;;5055276;28;20510;-78
2023/03/08 08:09:53;;;;;;;38.60;20.17;;;16.10;60.00;;;;;;5057447;28;20033;-78
2023/03/08 08:12:18;;;;;;;56.47;30.00;;;16.20;58.20;;;;;;5056099;28;20080;-77
2023/03/08 08:14:44;;;;;;;35.20;18.15;;;16.30;56.90;;;;;;5056438;28;20056;-78
2023/03/08 08:17:11;;;;;;;36.08;17.65;;;16.50;56.40;;;;;;5052520;28;20020;-78
2023/03/08 08:19:37;;;;;;;44.05;20.63;;;16.50;56.00;;;;;;5056518;28;20092;-79
2023/03/08 08:22:03;;;;;;;45.85;21.52;;;16.40;53.40;;;;;;5056787;28;20021;-78
2023/03/08 08:24:31;;;;;;;35.03;18.05;;;16.60;53.50;;;;;;5056963;28;20043;-78
2023/03/08 08:26:57;;;;;;;59.63;30.17;;;16.70;53.80;;;;;;5056723;28;20413;-79
2023/03/08 08:29:23;;;;;;;41.38;21.25;;;16.80;53.20;;;;;;5055364;28;20083;-81
2023/03/08 08:31:51;;;;;;;27.25;13.48;;;17.10;54.00;;;;;;5055713;28;20016;-78
2023/03/08 08:34:18;;;;;;;18.33;9.65;;;17.40;51.10;;;;;;5056016;28;20473;-79
2023/03/08 08:36:44;;;;;;;19.63;8.73;;;17.50;50.90;;;;;;5054137;28;20013;-79
2023/03/08 08:39:09;;;;;;;18.38;8.25;;;17.50;48.80;;;;;;5054125;28;20028;-78
2023/03/08 08:41:35;;;;;;;17.52;8.52;;;17.80;48.70;;;;;;5058680;28;20367;-78
2023/03/08 08:44:01;;;;;;;18.55;8.27;;;17.70;49.50;;;;;;5055065;28;20029;-80
2023/03/08 08:46:27;;;;;;;22.42;10.40;;;17.80;50.40;;;;;;5055718;28;20018;-80
2023/03/08 08:48:54;;;;;;;23.88;11.27;;;18.10;47.60;;;;;;5054842;28;20028;-79
2023/03/08 08:51:20;;;;;;;24.50;8.82;;;18.50;48.80;;;;;;5074990;28;20058;-80
2023/03/08 08:53:46;;;;;;;19.75;8.02;;;18.80;46.30;;;;;;5060641;28;20098;-81
2023/03/08 08:56:14;;;;;;;18.05;7.97;;;19.50;46.90;;;;;;5055901;28;20017;-80
2023/03/08 08:58:40;;;;;;;19.25;9.38;;;19.40;45.10;;;;;;5056260;28;20032;-80
2023/03/08 09:01:18;;;;;;;19.80;10.60;;;19.10;45.30;;;;;;5056217;28;20025;-80
2023/03/08 09:03:45;;;;;;;13.25;7.50;;;19.10;45.90;;;;;;5055787;28;20047;-77
2023/03/08 09:06:12;;;;;;;16.90;8.48;;;18.80;46.60;;;;;;5072725;28;20485;-79
2023/03/08 09:08:37;;;;;;;15.68;7.45;;;18.40;48.20;;;;;;5068821;28;20086;-77
2023/03/08 09:11:05;;;;;;;15.15;7.80;;;18.30;47.70;;;;;;5066678;28;20033;-78
2023/03/08 09:13:31;;;;;;;11.43;6.18;;;18.10;46.90;;;;;;5056689;28;20047;-78
2023/03/08 09:15:57;;;;;;;19.05;9.63;;;18.00;46.80;;;;;;5056173;28;20025;-78
2023/03/08 09:18:23;;;;;;;39.42;17.63;;;18.10;48.50;;;;;;5053839;28;20051;-78
2023/03/08 09:20:48;;;;;;;12.98;6.20;;;18.30;46.90;;;;;;5055775;28;20024;-78
2023/03/08 09:23:14;;;;;;;9.68;4.30;;;18.30;47.00;;;;;;5054764;28;20357;-79
2023/03/08 09:25:40;;;;;;;7.32;3.40;;;18.30;47.50;;;;;;5060936;28;20028;-77
2023/03/08 09:28:05;;;;;;;7.82;4.70;;;18.30;45.50;;;;;;5076132;28;20324;-78
2023/03/08 09:30:31;;;;;;;7.82;3.20;;;18.90;46.30;;;;;;5074616;28;20103;-79
2023/03/08 09:32:58;;;;;;;51.10;22.63;;;19.30;43.50;;;;;;5075537;28;20021;-78
2023/03/08 09:35:24;;;;;;;27.75;11.32;;;19.50;44.70;;;;;;5074461;28;20458;-80
2023/03/08 09:37:50;;;;;;;83.22;36.08;;;18.90;43.10;;;;;;5065359;28;20375;-78
2023/03/08 09:40:26;;;;;;;15.77;8.07;;;19.00;44.00;;;;;;5071266;28;20459;-78
2023/03/08 09:42:57;;;;;;;10.13;5.03;;;19.50;42.70;;;;;;5055259;28;20017;-78
2023/03/08 09:45:26;;;;;;;7.53;3.13;;;19.80;44.10;;;;;;5055010;28;20055;-78
2023/03/08 09:48:03;;;;;;;10.55;4.03;;;19.90;42.50;;;;;;5055487;28;20455;-78
2023/03/08 09:50:29;;;;;;;12.55;4.45;;;20.10;43.70;;;;;;5055558;28;20028;-79
2023/03/08 09:53:12;;;;;;;7.00;4.20;;;20.00;42.60;;;;;;5055326;28;20402;-78
2023/03/08 09:55:57;;;;;;;7.75;2.97;;;19.70;41.90;;;;;;5074141;28;20066;-78
2023/03/08 09:58:41;;;;;;;7.78;2.92;;;19.60;42.60;;;;;;5071642;28;20025;-77
2023/03/08 10:01:32;;;;;;;16.35;6.22;;;19.50;44.30;;;;;;5048815;28;20017;-79
2023/03/08 10:04:18;;;;;;;12.32;4.82;;;19.10;43.10;;;;;;5052598;28;20040;-77
2023/03/08 10:07:15;;;;;;;8.88;4.70;;;19.00;42.00;;;;;;5042125;28;20376;-78
2023/03/08 10:10:03;;;;;;;6.03;3.03;;;19.10;41.30;;;;;;5053244;28;20021;-79
2023/03/08 10:12:48;;;;;;;13.07;5.78;;;19.30;43.90;;;;;;5051599;28;20051;-78
2023/03/08 10:15:18;;;;;;;6.63;4.25;;;19.20;41.20;;;;;;5052311;28;20083;-78
2023/03/08 10:17:49;;;;;;;7.47;4.45;;;19.70;41.50;;;;;;5052687;28;20021;-78
2023/03/08 10:20:16;;;;;;;;;;;;;;;;;;5051160;28;20024;-78
2023/03/08 10:22:42;;;;;;;12.20;3.33;;;21.30;38.60;;;;;;5053585;28;19912;-78
2023/03/08 10:25:32;;;;;;;9.82;2.85;;;21.60;37.20;;;;;;5033571;28;20025;-78
2023/03/08 10:28:00;;;;;;;10.43;3.40;;;21.00;37.50;;;;;;5031646;28;20026;-77
2023/03/08 10:30:39;;;;;;;13.38;3.47;;;20.60;37.60;;;;;;5032496;28;20052;-78
2023/03/08 10:33:09;;;;;;;11.48;4.72;;;20.40;37.80;;;;;;5033362;28;20017;-76
2023/03/08 10:35:37;;;;;;;9.23;3.08;;;20.50;38.90;;;;;;5034615;28;20025;-77
2023/03/08 10:38:15;;;;;;;6.50;2.90;;;21.20;37.50;;;;;;5034658;28;20025;-76
2023/03/08 10:40:41;;;;;;;7.85;3.35;;;20.80;35.80;;;;;;5034793;28;20013;-77
2023/03/08 10:43:23;;;;;;;4.72;2.50;;;20.60;37.10;;;;;;5034314;28;20029;-77
2023/03/08 10:46:01;;;;;;;7.28;3.15;;;20.20;37.30;;;;;;5033331;28;20516;-76
2023/03/08 10:48:27;;;;;;;4.57;2.70;;;21.70;37.70;;;;;;5034375;28;20029;-77
2023/03/08 10:51:01;;;;;;;7.15;3.00;;;;;;;;;;5034456;28;20029;-78
2023/03/08 10:53:28;;;;;;;7.82;2.22;;;;;;;;;;5034827;28;20029;-76
2023/03/08 10:55:55;;;;;;;6.75;2.92;;;;;;;;;;5032834;28;20018;-78
2023/03/08 10:58:33;;;;;;;5.40;3.08;;;;;;;;;;5032777;28;20022;-76
2023/03/08 11:01:01;;;;;;;8.35;2.63;;;;;;;;;;5034312;28;20021;-77
2023/03/08 11:03:27;;;;;;;7.65;3.42;;;;;;;;;;5033557;28;20014;-78
2023/03/08 11:05:55;;;;;;;7.57;3.17;;;;;;;;;;5033961;28;20026;-77
2023/03/08 11:08:23;;;;;;;8.55;3.90;;;;;;;;;;5032878;28;20032;-77
2023/03/08 11:10:59;;;;;;;9.63;2.80;;;;;;;;;;5033929;28;20036;-77
2023/03/08 11:13:36;;;;;;;7.97;3.28;;;;;;;;;;5032463;28;20488;-78
2023/03/08 11:16:20;;;;;;;7.00;3.05;;;23.30;29.10;;;;;;5033999;28;20363;-79
2023/03/08 11:18:58;;;;;;;6.00;3.53;;;22.40;30.70;;;;;;5034384;28;20032;-78
2023/03/08 11:21:45;;;;;;;9.15;4.40;;;21.80;32.70;;;;;;5032679;28;20022;-78
2023/03/08 11:24:10;;;;;;;5.97;4.30;;;21.40;35.70;;;;;;5033738;28;20025;-82
2023/03/08 11:26:46;;;;;;;6.65;3.78;;;20.90;35.50;;;;;;5032884;28;20410;-80
2023/03/08 11:29:39;;;;;;;8.63;2.97;;;20.40;36.50;;;;;;5032668;28;20510;-81
2023/03/08 11:32:19;;;;;;;9.43;3.50;;;19.90;37.70;;;;;;5032231;28;20072;-80
2023/03/08 11:35:00;;;;;;;7.63;2.90;;;19.70;39.20;;;;;;5032750;28;20044;-80
2023/03/08 11:37:48;;;;;;;5.87;2.47;;;19.40;41.50;;;;;;5032567;28;20095;-79
2023/03/08 11:40:28;;;;;;;13.23;3.63;;;19.00;40.00;;;;;;5033484;28;20444;-78
2023/03/08 11:43:07;;;;;;;9.38;4.43;;;19.20;40.80;;;;;;5036644;28;20107;-78
2023/03/08 11:46:05;;;;;;;6.85;3.15;;;19.40;41.10;;;;;;5036291;28;20029;-78
2023/03/08 11:48:55;;;;;;;8.32;3.50;;;19.10;41.00;;;;;;5036568;28;20116;-80
2023/03/08 11:51:45;;;;;;;9.65;4.45;;;18.80;40.20;;;;;;5036229;28;20025;-79
2023/03/08 11:54:29;;;;;;;17.10;6.18;;;18.70;41.00;;;;;;5037788;28;20049;-80
2023/03/08 11:57:01;;;;;;;6.45;3.22;;;18.40;42.30;;;;;;5036572;28;20072;-78
2023/03/08 11:59:48;;;;;;;12.98;4.68;;;18.60;42.20;;;;;;5036078;28;20033;-78
2023/03/08 12:02:28;;;;;;;12.07;4.20;;;19.00;41.50;;;;;;5037360;28;20083;-80
2023/03/08 12:05:11;;;;;;;9.30;4.10;;;19.00;41.40;;;;;;5036388;28;20112;-80
2023/03/08 12:07:42;;;;;;;15.90;9.05;;;18.70;41.70;;;;;;5036308;28;20029;-80
2023/03/08 12:10:25;;;;;;;18.73;7.10;;;18.60;41.90;;;;;;5037493;28;20041;-79
2023/03/08 12:13:00;;;;;;;12.75;5.68;;;18.40;41.40;;;;;;5036987;28;20375;-79
2023/03/08 12:15:52;;;;;;;37.08;14.35;;;18.30;42.60;;;;;;5036369;28;20372;-80
2023/03/08 12:18:28;;;;;;;;;;;18.10;43.10;;;;;;5037544;28;20032;-79
2023/03/08 12:21:01;;;;;;;8.63;3.40;;;17.80;43.10;;;;;;5035856;28;19912;-78
2023/03/08 12:23:35;;;;;;;12.00;5.15;;;17.70;42.60;;;;;;5037329;28;20017;-77
2023/03/08 12:26:14;;;;;;;8.43;2.80;;;17.70;42.70;;;;;;5036949;28;20041;-79
2023/03/08 12:28:47;;;;;;;14.35;5.68;;;17.50;42.70;;;;;;5037493;28;20052;-78
2023/03/08 12:31:28;;;;;;;11.98;5.60;;;17.40;43.50;;;;;;5035899;28;20021;-79
2023/03/08 12:33:56;;;;;;;14.80;5.35;;;17.50;45.70;;;;;;5036908;28;20067;-78
2023/03/08 12:36:34;;;;;;;11.40;5.40;;;17.50;44.90;;;;;;5036783;28;20108;-79
2023/03/08 12:39:21;;;;;;;14.65;5.70;;;17.50;44.20;;;;;;5036718;28;20371;-79
2023/03/08 12:41:57;;;;;;;11.02;5.55;;;17.60;44.80;;;;;;5037116;28;20119;-80
2023/03/08 12:44:25;;;;;;;14.60;6.45;;;17.60;44.60;;;;;;5036822;28;20017;-78
2023/03/08 12:46:57;;;;;;;21.90;9.65;;;17.50;42.90;;;;;;5036802;28;20155;-78
2023/03/08 12:49:32;;;;;;;12.82;7.07;;;17.50;43.30;;;;;;5036050;28;20017;-79